createdAt,value
2024-01-20T00:01:03.978Z,2.97
2024-01-20T00:03:32.260Z,2.80
2024-01-20T00:06:01.570Z,2.40
2024-01-20T00:08:29.961Z,2.00
2024-01-20T00:10:58.349Z,1.43
2024-01-20T00:13:28.383Z,1.90
2024-01-20T00:15:56.901Z,2.07
2024-01-20T00:18:25.224Z,2.73
2024-01-20T00:20:53.710Z,2.30
2024-01-20T00:23:21.942Z,2.73
2024-01-20T00:25:50.360Z,2.50
2024-01-20T00:28:19.327Z,2.43
2024-01-20T00:30:49.649Z,2.70
2024-01-20T00:33:18.204Z,2.67
2024-01-20T00:35:47.157Z,1.83
2024-01-20T00:38:15.636Z,2.37
2024-01-20T00:40:43.986Z,1.67
2024-01-20T00:43:12.321Z,2.60
2024-01-20T00:45:40.535Z,2.80
2024-01-20T00:48:10.358Z,2.10
2024-01-20T00:50:38.703Z,2.17
2024-01-20T00:53:06.950Z,2.00
2024-01-20T00:55:35.391Z,1.70
2024-01-20T00:58:03.712Z,2.17
2024-01-20T01:00:32.042Z,2.30
2024-01-20T01:03:00.464Z,2.00
2024-01-20T01:05:30.088Z,1.63
2024-01-20T01:07:58.961Z,2.30
2024-01-20T01:10:27.392Z,2.10
2024-01-20T01:12:55.694Z,2.03
2024-01-20T01:15:24.130Z,1.90
2024-01-20T01:17:52.467Z,2.07
2024-01-20T01:20:20.975Z,1.37
2024-01-20T01:22:52.346Z,2.17
2024-01-20T01:25:21.181Z,3.03
2024-01-20T01:27:49.629Z,1.83
2024-01-20T01:30:18.207Z,2.43
2024-01-20T01:32:46.481Z,1.63
2024-01-20T01:35:14.837Z,2.53
2024-01-20T01:37:43.129Z,1.60
2024-01-20T01:40:14.178Z,2.03
2024-01-20T01:42:42.442Z,1.70
2024-01-20T01:45:12.107Z,2.50
2024-01-20T01:47:40.844Z,2.13
2024-01-20T01:50:10.660Z,2.50
2024-01-20T01:52:39.252Z,3.30
2024-01-20T01:55:08.542Z,3.03
2024-01-20T01:57:38.476Z,2.50
2024-01-20T02:00:08.374Z,1.67
2024-01-20T02:02:36.621Z,2.07
2024-01-20T02:05:05.568Z,2.20
2024-01-20T02:07:35.247Z,2.00
2024-01-20T02:10:03.615Z,2.57
2024-01-20T02:12:32.462Z,1.80
2024-01-20T02:15:02.302Z,2.60
2024-01-20T02:17:30.678Z,1.70
2024-01-20T02:19:58.934Z,1.87
2024-01-20T02:22:28.576Z,2.00
2024-01-20T02:24:56.765Z,2.03
2024-01-20T02:27:25.128Z,2.30
2024-01-20T02:29:53.353Z,3.13
2024-01-20T02:32:21.568Z,1.97
2024-01-20T02:34:49.878Z,1.93
2024-01-20T02:37:18.127Z,2.20
2024-01-20T02:39:48.063Z,1.80
2024-01-20T02:42:16.442Z,1.47
2024-01-20T02:44:44.721Z,1.63
2024-01-20T02:47:13.087Z,2.50
2024-01-20T02:49:41.788Z,2.77
2024-01-20T02:52:10.231Z,2.17
2024-01-20T02:54:38.528Z,1.90
2024-01-20T02:57:09.307Z,2.20
2024-01-20T02:59:37.596Z,2.13
2024-01-20T03:02:06.260Z,1.90
2024-01-20T03:04:34.822Z,1.90
2024-01-20T03:07:03.244Z,1.37
2024-01-20T03:09:31.545Z,1.33
2024-01-20T03:12:00.277Z,2.73
2024-01-20T03:14:30.048Z,1.83
2024-01-20T03:16:58.255Z,1.10
2024-01-20T03:19:26.696Z,2.83
2024-01-20T03:21:54.932Z,2.50
2024-01-20T03:24:23.199Z,1.40
2024-01-20T03:26:52.196Z,1.83
2024-01-20T03:29:20.759Z,2.27
2024-01-20T03:31:50.617Z,2.07
2024-01-20T03:34:19.437Z,1.70
2024-01-20T03:36:49.035Z,1.80
2024-01-20T03:39:18.061Z,2.07
2024-01-20T03:41:47.000Z,2.00
2024-01-20T03:44:15.601Z,1.60
2024-01-20T03:46:44.096Z,2.20
2024-01-20T03:49:14.178Z,2.07
2024-01-20T03:51:42.835Z,1.43
2024-01-20T03:54:11.181Z,1.70
2024-01-20T03:56:44.641Z,1.40
2024-01-20T03:59:13.285Z,2.13
2024-01-20T04:01:41.859Z,2.00
2024-01-20T04:04:10.554Z,1.90
2024-01-20T04:06:40.526Z,1.80
2024-01-20T04:09:08.798Z,2.57
2024-01-20T04:11:37.154Z,1.97
2024-01-20T04:14:05.459Z,1.60
2024-01-20T04:16:34.781Z,2.07
2024-01-20T04:19:03.162Z,2.97
2024-01-20T04:21:31.477Z,1.67
2024-01-20T04:24:01.134Z,1.77
2024-01-20T04:26:29.421Z,3.10
2024-01-20T04:28:57.637Z,1.43
2024-01-20T04:31:25.843Z,2.73
2024-01-20T04:33:54.779Z,1.37
2024-01-20T04:36:23.089Z,1.73
2024-01-20T04:38:51.393Z,1.87
2024-01-20T04:41:21.041Z,1.77
2024-01-20T04:43:49.288Z,1.30
2024-01-20T04:46:17.645Z,2.27
2024-01-20T04:48:48.080Z,1.40
2024-01-20T04:51:16.387Z,2.30
2024-01-20T04:53:44.679Z,2.03
2024-01-20T04:56:13.092Z,2.07
2024-01-20T04:58:42.658Z,1.77
2024-01-20T05:01:10.921Z,1.83
2024-01-20T05:03:39.405Z,2.03
2024-01-20T05:06:08.324Z,1.63
2024-01-20T05:08:36.610Z,2.23
2024-01-20T05:11:05.111Z,1.10
2024-01-20T05:13:33.540Z,2.07
2024-01-20T05:16:03.150Z,1.47
2024-01-20T05:18:31.517Z,2.17
2024-01-20T05:20:59.835Z,2.27
2024-01-20T05:23:28.012Z,2.33
2024-01-20T05:25:56.226Z,2.10
2024-01-20T05:28:24.486Z,2.03
2024-01-20T05:30:52.697Z,1.73
2024-01-20T05:33:22.821Z,2.70
2024-01-20T05:35:51.392Z,2.03
2024-01-20T05:38:19.611Z,2.03
2024-01-20T05:40:47.869Z,1.60
2024-01-20T05:43:16.091Z,3.23
2024-01-20T05:45:44.512Z,2.63
2024-01-20T05:48:13.145Z,4.47
2024-01-20T05:50:42.902Z,2.23
2024-01-20T05:53:11.145Z,3.30
2024-01-20T05:55:39.343Z,2.80
2024-01-20T05:58:07.739Z,2.13
2024-01-20T06:00:35.999Z,3.17
2024-01-20T06:03:05.370Z,4.87
2024-01-20T06:05:33.601Z,2.60
2024-01-20T06:08:03.156Z,2.53
2024-01-20T06:10:31.411Z,3.37
2024-01-20T06:12:59.605Z,3.13
2024-01-20T06:15:27.857Z,2.77
2024-01-20T06:17:56.152Z,4.07
2024-01-20T06:20:24.424Z,3.33
2024-01-20T06:22:52.651Z,3.90
2024-01-20T06:25:23.277Z,4.17
2024-01-20T06:27:51.504Z,2.67
2024-01-20T06:30:20.249Z,3.40
2024-01-20T06:32:48.493Z,2.93
2024-01-20T06:35:16.921Z,4.07
2024-01-20T06:37:45.121Z,2.57
2024-01-20T06:40:13.914Z,2.93
2024-01-20T06:42:43.489Z,2.57
2024-01-20T06:45:14.686Z,3.00
2024-01-20T06:47:43.011Z,3.17
2024-01-20T06:50:13.679Z,4.40
2024-01-20T06:52:43.408Z,3.17
2024-01-20T06:55:11.939Z,2.40
2024-01-20T06:57:40.173Z,3.53
2024-01-20T07:00:11.731Z,2.70
2024-01-20T07:02:39.940Z,3.33
2024-01-20T07:05:09.798Z,3.13
2024-01-20T07:07:39.284Z,3.97
2024-01-20T07:10:10.063Z,3.80
2024-01-20T07:12:39.035Z,2.90
2024-01-20T07:15:10.878Z,3.73
2024-01-20T07:17:39.148Z,2.60
2024-01-20T07:20:08.462Z,3.77
2024-01-20T07:22:36.670Z,2.70
2024-01-20T07:25:05.452Z,4.47
2024-01-20T07:27:33.985Z,3.00
2024-01-20T07:30:02.973Z,1.37
2024-01-20T07:32:32.712Z,3.33
2024-01-20T07:35:01.027Z,3.07
2024-01-20T07:37:29.857Z,3.77
2024-01-20T07:39:58.336Z,2.67
2024-01-20T07:42:26.540Z,2.53
2024-01-20T07:44:54.823Z,2.57
2024-01-20T07:47:23.033Z,2.27
2024-01-20T07:49:52.724Z,2.50
2024-01-20T07:52:20.931Z,4.43
2024-01-20T07:54:49.141Z,2.73
2024-01-20T07:57:17.393Z,3.23
2024-01-20T07:59:45.680Z,3.27
2024-01-20T08:02:14.219Z,4.50
2024-01-20T08:04:42.492Z,3.47
2024-01-20T08:07:12.880Z,3.03
2024-01-20T08:09:41.191Z,3.10
2024-01-20T08:12:09.590Z,3.37
2024-01-20T08:14:37.809Z,3.50
2024-01-20T08:17:06.161Z,3.40
2024-01-20T08:19:34.539Z,4.53
2024-01-20T08:22:02.946Z,3.57
2024-01-20T08:24:32.784Z,3.27
2024-01-20T08:27:01.063Z,3.67
2024-01-20T08:29:29.308Z,3.53
2024-01-20T08:31:57.587Z,4.30
2024-01-20T08:34:26.065Z,4.10
2024-01-20T08:36:54.419Z,3.50
2024-01-20T08:39:24.049Z,3.83
2024-01-20T08:41:53.710Z,3.73
2024-01-20T08:44:21.893Z,3.03
2024-01-20T08:46:50.144Z,3.27
2024-01-20T08:49:18.564Z,3.37
2024-01-20T08:51:46.879Z,3.33
2024-01-20T08:54:15.215Z,4.73
2024-01-20T08:56:43.492Z,4.23
2024-01-20T08:59:13.163Z,2.80
2024-01-20T09:01:41.387Z,3.17
2024-01-20T09:04:09.735Z,2.63
2024-01-20T09:06:38.055Z,2.80
2024-01-20T09:09:06.478Z,2.80
2024-01-20T09:11:34.742Z,2.77
2024-01-20T09:14:02.937Z,2.53
2024-01-20T09:16:32.555Z,2.77
2024-01-20T09:19:00.877Z,2.40
2024-01-20T09:21:29.236Z,2.43
2024-01-20T09:23:57.479Z,2.10
2024-01-20T09:26:26.021Z,2.43
2024-01-20T09:28:54.298Z,2.33
2024-01-20T09:31:22.594Z,2.60
2024-01-20T09:33:52.356Z,2.53
2024-01-20T09:36:20.730Z,2.30
2024-01-20T09:38:49.896Z,2.17
2024-01-20T09:41:18.816Z,2.23
2024-01-20T09:43:47.434Z,2.80
2024-01-20T09:46:15.970Z,2.10
2024-01-20T09:48:46.133Z,2.00
2024-01-20T09:51:15.956Z,1.97
2024-01-20T09:53:46.011Z,1.90
2024-01-20T09:56:14.349Z,1.87
2024-01-20T09:58:42.885Z,2.33
2024-01-20T10:01:11.248Z,1.63
2024-01-20T10:03:42.529Z,2.77
2024-01-20T10:06:10.829Z,2.13
2024-01-20T10:08:40.422Z,2.10
2024-01-20T10:11:08.670Z,2.50
2024-01-20T10:13:37.356Z,2.43
2024-01-20T10:16:06.441Z,2.20
2024-01-20T10:18:36.121Z,3.00
2024-01-20T10:21:05.587Z,2.47
2024-01-20T10:23:37.058Z,2.93
2024-01-20T10:26:08.890Z,2.13
2024-01-20T10:28:37.897Z,2.33
2024-01-20T10:31:10.162Z,2.60
2024-01-20T10:33:39.124Z,3.13
2024-01-20T10:36:11.477Z,2.47
2024-01-20T10:38:40.745Z,2.10
2024-01-20T10:41:13.250Z,2.60
2024-01-20T10:43:50.829Z,2.20
2024-01-20T10:46:25.401Z,2.40
2024-01-20T10:48:56.426Z,2.17
2024-01-20T10:51:28.910Z,1.97
2024-01-20T10:53:58.449Z,1.80
2024-01-20T10:56:29.428Z,2.57
2024-01-20T10:59:09.786Z,2.10
2024-01-20T11:01:46.331Z,2.20
2024-01-20T11:04:21.131Z,1.70
2024-01-20T11:06:49.592Z,2.40
2024-01-20T11:09:23.191Z,2.37
2024-01-20T11:12:03.215Z,2.30
2024-01-20T11:14:32.049Z,1.90
2024-01-20T11:17:11.427Z,2.00
2024-01-20T11:19:45.816Z,2.10
2024-01-20T11:22:34.795Z,1.90
2024-01-20T11:25:07.031Z,1.63
2024-01-20T11:27:48.409Z,1.90
2024-01-20T11:30:26.890Z,2.00
2024-01-20T11:32:57.358Z,1.90
2024-01-20T11:35:26.146Z,1.73
2024-01-20T11:37:56.814Z,1.77
2024-01-20T11:40:25.449Z,1.90
2024-01-20T11:43:05.854Z,1.73
2024-01-20T11:45:34.293Z,1.83
2024-01-20T11:48:03.349Z,1.67
2024-01-20T11:50:31.946Z,1.83
2024-01-20T11:53:01.432Z,2.10
2024-01-20T11:55:30.116Z,1.77
2024-01-20T11:57:59.888Z,1.77
2024-01-20T12:00:28.285Z,1.67
2024-01-20T12:02:56.655Z,1.87
2024-01-20T12:05:25.212Z,1.60
2024-01-20T12:07:54.365Z,1.80
2024-01-20T12:10:22.654Z,1.90
2024-01-20T12:12:51.430Z,2.20
2024-01-20T12:15:21.245Z,1.80
2024-01-20T12:17:49.618Z,2.03
2024-01-20T12:20:18.642Z,1.80
2024-01-20T12:22:53.030Z,2.17
2024-01-20T12:25:21.495Z,1.67
2024-01-20T12:27:51.849Z,1.87
2024-01-20T12:30:21.794Z,2.03
2024-01-20T12:32:50.055Z,1.70
2024-01-20T12:35:33.241Z,1.50
2024-01-20T12:38:01.452Z,1.53
2024-01-20T12:40:30.694Z,2.10
2024-01-20T12:42:59.201Z,2.10
2024-01-20T12:45:28.844Z,1.90
2024-01-20T12:47:57.105Z,2.13
2024-01-20T12:50:25.437Z,2.07
2024-01-20T12:52:53.843Z,2.33
2024-01-20T12:55:22.124Z,1.90
2024-01-20T12:57:50.494Z,2.50
2024-01-20T13:00:19.702Z,1.70
2024-01-20T13:02:49.354Z,1.77
2024-01-20T13:05:17.888Z,2.03
2024-01-20T13:07:46.243Z,2.00
2024-01-20T13:10:14.430Z,1.87
2024-01-20T13:12:42.742Z,1.93
2024-01-20T13:15:11.950Z,1.87
2024-01-20T13:17:40.226Z,1.83
2024-01-20T13:20:11.656Z,1.87
2024-01-20T13:22:39.931Z,1.80
2024-01-20T13:25:09.896Z,1.93
2024-01-20T13:27:38.402Z,1.87
2024-01-20T13:30:08.663Z,1.70
2024-01-20T13:32:36.925Z,1.90
2024-01-20T13:35:06.081Z,1.90
2024-01-20T13:37:35.734Z,2.33
2024-01-20T13:40:06.350Z,2.00
2024-01-20T13:42:34.812Z,2.03
2024-01-20T13:45:03.605Z,2.47
2024-01-20T13:47:32.018Z,2.67
2024-01-20T13:50:00.455Z,2.23
2024-01-20T13:52:28.723Z,2.13
2024-01-20T13:54:58.411Z,2.20
2024-01-20T13:57:26.847Z,2.30
2024-01-20T13:59:55.129Z,2.47
2024-01-20T14:02:23.391Z,2.63
2024-01-20T14:04:52.044Z,2.47
2024-01-20T14:07:20.329Z,1.77
2024-01-20T14:09:48.656Z,2.20
2024-01-20T14:12:19.337Z,2.23
2024-01-20T14:14:47.648Z,2.20
2024-01-20T14:17:16.002Z,1.63
2024-01-20T14:19:44.337Z,2.30
2024-01-20T14:22:12.613Z,1.70
2024-01-20T14:24:41.083Z,1.60
2024-01-20T14:27:09.980Z,2.37
2024-01-20T14:29:40.661Z,2.03
2024-01-20T14:32:08.917Z,1.97
2024-01-20T14:34:37.487Z,2.80
2024-01-20T14:37:08.053Z,2.60
2024-01-20T14:39:36.939Z,2.07
2024-01-20T14:42:06.069Z,2.20
2024-01-20T14:44:34.594Z,2.27
2024-01-20T14:47:04.574Z,2.83
2024-01-20T14:49:32.887Z,2.63
2024-01-20T14:52:01.196Z,3.63
2024-01-20T14:54:29.486Z,2.43
2024-01-20T14:56:57.691Z,2.30
2024-01-20T14:59:25.886Z,3.90
2024-01-20T15:01:54.124Z,2.57
2024-01-20T15:04:23.807Z,2.30
2024-01-20T15:06:52.262Z,2.47
2024-01-20T15:09:21.051Z,2.33
2024-01-20T15:11:49.584Z,2.07
2024-01-20T15:14:17.749Z,2.53
2024-01-20T15:16:47.543Z,1.90
2024-01-20T15:19:16.655Z,2.23
2024-01-20T15:21:46.501Z,2.40
2024-01-20T15:24:15.636Z,2.77
2024-01-20T15:26:43.992Z,2.20
2024-01-20T15:29:12.465Z,2.30
2024-01-20T15:31:40.812Z,2.43
2024-01-20T15:34:09.207Z,2.43
2024-01-20T15:36:37.517Z,2.57
2024-01-20T15:39:07.714Z,2.57
2024-01-20T15:41:36.118Z,2.63
2024-01-20T15:44:04.368Z,2.70
2024-01-20T15:46:32.640Z,2.63
2024-01-20T15:49:00.883Z,3.83
2024-01-20T15:51:29.134Z,6.23
2024-01-20T15:53:57.374Z,4.97
2024-01-20T15:56:26.984Z,3.20
2024-01-20T15:58:55.209Z,3.60
2024-01-20T16:01:24.253Z,2.87
2024-01-20T16:03:52.897Z,3.43
2024-01-20T16:06:21.361Z,3.33
2024-01-20T16:08:50.248Z,3.17
2024-01-20T16:11:18.499Z,3.10
2024-01-20T16:13:48.098Z,2.70
2024-01-20T16:16:16.357Z,3.50
2024-01-20T16:18:44.776Z,2.77
2024-01-20T16:21:13.145Z,3.17
2024-01-20T16:23:41.465Z,3.03
2024-01-20T16:26:09.678Z,11.33
2024-01-20T16:28:37.917Z,5.90
2024-01-20T16:31:08.015Z,4.13
2024-01-20T16:33:36.548Z,3.43
2024-01-20T16:36:05.226Z,2.77
2024-01-20T16:38:34.635Z,2.87
2024-01-20T16:41:03.343Z,3.00
2024-01-20T16:43:33.581Z,2.07
2024-01-20T16:46:01.797Z,3.03
2024-01-20T16:48:32.712Z,2.83
2024-01-20T16:51:07.829Z,2.73
2024-01-20T16:53:41.269Z,2.57
2024-01-20T16:56:10.253Z,2.53
2024-01-20T16:58:38.795Z,2.23
2024-01-20T17:01:07.226Z,2.30
2024-01-20T17:03:37.160Z,2.40
2024-01-20T17:06:06.026Z,2.40
2024-01-20T17:08:34.382Z,3.20
2024-01-20T17:11:03.306Z,3.77
2024-01-20T17:13:31.958Z,7.83
2024-01-20T17:16:00.201Z,7.60
2024-01-20T17:18:28.555Z,4.80
2024-01-20T17:20:58.398Z,2.90
2024-01-20T17:23:26.975Z,2.67
2024-01-20T17:25:55.270Z,2.73
2024-01-20T17:28:23.537Z,3.00
2024-01-20T17:30:51.865Z,2.20
2024-01-20T17:33:20.422Z,2.57
2024-01-20T17:35:53.873Z,2.77
2024-01-20T17:38:23.568Z,2.83
2024-01-20T17:40:51.769Z,2.83
2024-01-20T17:43:19.998Z,3.90
2024-01-20T17:45:51.985Z,3.77
2024-01-20T17:48:21.234Z,3.33
2024-01-20T17:50:52.030Z,3.50
2024-01-20T17:53:20.348Z,3.23
2024-01-20T17:55:50.925Z,3.23
2024-01-20T17:58:19.179Z,2.73
2024-01-20T18:00:47.500Z,3.13
2024-01-20T18:03:15.828Z,3.07
2024-01-20T18:05:44.152Z,2.67
2024-01-20T18:08:12.440Z,3.07
2024-01-20T18:10:46.124Z,2.80
2024-01-20T18:13:18.241Z,3.93
2024-01-20T18:15:51.233Z,3.33
2024-01-20T18:18:19.599Z,3.27
2024-01-20T18:20:48.071Z,2.93
2024-01-20T18:23:16.365Z,3.70
2024-01-20T18:25:44.700Z,3.83
2024-01-20T18:28:12.880Z,3.47
2024-01-20T18:30:44.635Z,2.13
2024-01-20T18:33:12.964Z,3.67
2024-01-20T18:35:41.268Z,2.47
2024-01-20T18:38:09.703Z,3.60
2024-01-20T18:40:37.920Z,3.33
2024-01-20T18:43:06.636Z,2.43
2024-01-20T18:45:34.926Z,2.57
2024-01-20T18:48:05.170Z,2.27
2024-01-20T18:50:35.190Z,3.23
2024-01-20T18:53:03.498Z,3.47
2024-01-20T18:55:31.698Z,3.87
2024-01-20T18:57:59.984Z,2.60
2024-01-20T19:00:28.255Z,3.27
2024-01-20T19:02:58.872Z,2.80
2024-01-20T19:05:28.638Z,3.83
2024-01-20T19:07:57.096Z,3.10
2024-01-20T19:10:25.682Z,2.53
2024-01-20T19:12:53.934Z,3.27
2024-01-20T19:15:22.361Z,3.23
2024-01-20T19:17:51.364Z,3.73
2024-01-20T19:20:21.862Z,3.87
2024-01-20T19:22:51.428Z,3.80
2024-01-20T19:25:19.934Z,3.00
2024-01-20T19:27:48.460Z,4.23
2024-01-20T19:30:17.464Z,5.43
2024-01-20T19:32:46.192Z,4.40
2024-01-20T19:35:14.556Z,5.27
2024-01-20T19:37:42.761Z,6.30
2024-01-20T19:40:16.485Z,16.20
2024-01-20T19:42:50.668Z,12.77
2024-01-20T19:45:19.009Z,6.87
2024-01-20T19:47:47.286Z,5.50
2024-01-20T19:50:15.606Z,3.10
2024-01-20T19:52:43.989Z,3.20
2024-01-20T19:55:13.647Z,3.50
2024-01-20T19:57:41.842Z,2.97
2024-01-20T20:00:12.337Z,2.87
2024-01-20T20:02:41.652Z,3.87
2024-01-20T20:05:10.042Z,2.83
2024-01-20T20:07:38.281Z,3.10
2024-01-20T20:10:08.265Z,2.97
2024-01-20T20:12:37.859Z,2.93
2024-01-20T20:15:07.123Z,3.30
2024-01-20T20:17:35.359Z,3.13
2024-01-20T20:20:05.014Z,2.80
2024-01-20T20:22:33.389Z,2.93
2024-01-20T20:25:01.606Z,2.20
2024-01-20T20:27:29.882Z,3.47
2024-01-20T20:29:59.845Z,3.97
2024-01-20T20:32:28.200Z,3.97
2024-01-20T20:34:59.672Z,4.27
2024-01-20T20:37:28.992Z,2.47
2024-01-20T20:39:57.248Z,4.47
2024-01-20T20:42:25.507Z,6.03
2024-01-20T20:44:53.922Z,3.70
2024-01-20T20:47:23.549Z,2.57
2024-01-20T20:49:52.481Z,2.53
2024-01-20T20:52:20.755Z,2.83
2024-01-20T20:54:49.045Z,3.43
2024-01-20T20:57:17.414Z,2.67
2024-01-20T20:59:46.210Z,3.10
2024-01-20T21:02:14.664Z,2.00
2024-01-20T21:04:44.319Z,3.93
2024-01-20T21:07:12.585Z,2.30
2024-01-20T21:09:43.993Z,3.17
2024-01-20T21:12:14.445Z,3.37
2024-01-20T21:14:42.671Z,4.00
2024-01-20T21:17:10.984Z,3.33
2024-01-20T21:19:39.526Z,3.07
2024-01-20T21:22:09.265Z,2.53
2024-01-20T21:24:37.464Z,2.57
2024-01-20T21:27:06.171Z,3.43
2024-01-20T21:29:34.382Z,3.43
2024-01-20T21:32:02.711Z,3.03
2024-01-20T21:34:31.025Z,3.90
2024-01-20T21:36:59.259Z,2.87
2024-01-20T21:39:29.473Z,3.33
2024-01-20T21:41:57.764Z,3.60
2024-01-20T21:44:26.892Z,3.17
2024-01-20T21:46:55.136Z,3.10
2024-01-20T21:49:24.273Z,2.53
2024-01-20T21:51:56.110Z,3.30
2024-01-20T21:54:24.651Z,3.23
2024-01-20T21:56:54.408Z,3.87
2024-01-20T21:59:25.469Z,2.87
2024-01-20T22:01:53.840Z,2.60
2024-01-20T22:04:22.216Z,3.30
2024-01-20T22:06:51.142Z,2.77
2024-01-20T22:09:19.680Z,3.53
2024-01-20T22:11:47.930Z,3.33
2024-01-20T22:14:17.876Z,3.53
2024-01-20T22:16:46.058Z,3.73
2024-01-20T22:19:14.438Z,4.00
2024-01-20T22:21:43.585Z,2.47
2024-01-20T22:24:11.908Z,2.70
2024-01-20T22:26:40.195Z,2.23
2024-01-20T22:29:19.164Z,2.57
2024-01-20T22:31:57.703Z,2.40
2024-01-20T22:34:32.392Z,2.93
2024-01-20T22:37:01.382Z,3.10
2024-01-20T22:39:29.789Z,4.23
2024-01-20T22:41:58.297Z,2.40
2024-01-20T22:44:26.808Z,2.73
2024-01-20T22:46:55.010Z,2.87
2024-01-20T22:49:24.874Z,2.80
2024-01-20T22:51:53.284Z,2.57
2024-01-20T22:54:25.064Z,2.40
2024-01-20T22:56:53.387Z,3.23
2024-01-20T22:59:21.580Z,1.87
2024-01-20T23:01:49.856Z,2.47
2024-01-20T23:04:18.259Z,2.77
2024-01-20T23:09:21.805Z,2.53
2024-01-20T23:11:50.102Z,2.47
2024-01-20T23:14:18.387Z,3.53
2024-01-20T23:16:46.631Z,2.83
2024-01-20T23:19:15.134Z,2.50
2024-01-20T23:21:44.538Z,2.90
2024-01-20T23:24:14.606Z,3.93
2024-01-20T23:26:44.297Z,4.13
2024-01-20T23:29:13.072Z,2.73
2024-01-20T23:31:41.358Z,3.57
2024-01-20T23:34:09.865Z,3.50
2024-01-20T23:36:38.330Z,3.27
2024-01-20T23:39:09.124Z,2.83
2024-01-20T23:41:39.465Z,3.17
2024-01-20T23:44:07.707Z,2.80
2024-01-20T23:46:35.897Z,3.10
2024-01-20T23:49:04.453Z,3.23
2024-01-20T23:51:32.688Z,2.83
2024-01-20T23:54:00.988Z,2.80
2024-01-20T23:56:29.289Z,4.20
2024-01-20T23:59:00.530Z,2.87
